University, Nevada
Current Conditions -  °F | °C
As of 1:55 AM on Monday 22 Dec 2014 (Local Time) from KRNO Reporting Station
Clear Clear  
Wind Chill: 37°   Ceiling: Unl
Heat Index: 40°   Visibility: 10mi
Dew Point: 35°   Wind: 5mph
Humidity: 83%   Direction: 200°SSW
Pressure: 30.28"   Gusts: NA
Location:  39.5468°N, 119.815°W
Report Text: KRNO 220955Z 20004KT 10SM CLR 04/02 A3028 RMK AO2 SLP233 T00440017 $
Loading
Personal Weather Stations






























Interactive Weather Map New forecast layout! Learn more

10-Day Weather Forecast

Advertisements
Track Severe Weather on mobile